Terminal Aerodrome Forecast
Issued by NWS Portland, OR

Home | Current Version | Previous Version | Text Only | Print | Product List | Glossary On
Versions: 1 2 3 4 5 6 7 8 9 10 11 12 13 14 15 16 17 18 19 20 21 22 23 24 25 26 27 28
000
FTUS46 KPQR 032052 AAC
TAFHIO
TAF AMD
KHIO 032052Z 0321/0418 20005KT P6SM SCT010 BKN100
     FM040400 18006KT 5SM -RA SCT015 OVC025
     FM040600 18008KT 4SM -RA BR OVC015
     FM040900 18004KT 2SM -RA BR OVC007=

USA.gov is the U.S. government's official web portal to all federal, state and local government web resources and services.